Federico Lombardi

Scout - Vélez
19 Nov 2028
Sunday
Process

Personality

Adaptability (15) Ambition (11) Controversy (17) Loyalty (3) Pressure (6) Professionalism (5) Sportsmanship (9) Temperament (6)

Profile

Coaching Style Democratic
License Continental B
Determination 11
Man Management 14
Motivating 12
Discipline 12
Job Satisfaction
100%
Fatigue
0%
Role Scout
Wage 91.1K p/w
Contract 14.03.2029

Performance

Behaviour Good
Training Effectiveness
58%
Player Development
50%
Injury Prevention
55%
Tactical Implementation
55%

Recent Events

Attended a recruitment meeting 7d ago
Attended a recruitment meeting 7d ago
Attended a recruitment meeting 14d ago
Attended a recruitment meeting 14d ago
Attended a recruitment meeting 21d ago
Attended a recruitment meeting 21d ago
Attended a recruitment meeting 28d ago
Attended a recruitment meeting 28d ago

Currently Monitoring

133
Player Club Status Ability Confidence Watched Last Observed Latest Vote
Lukas Jensen Millwall Active 128 / 112 40% 1 31.05.2028 -
Will Dennis Milton Keynes Dons Active 119 / 125 40% 1 31.05.2028 -
Rico Henry River Plate Active 143 / 142 40% 1 30.11.2027 -
Jherson Mosquera Newell's Old Boys Active 126 / 130 40% 1 30.11.2027 -
Hosea Michael Remo Stars Active 91 / 86 40% 3 08.11.2027 -
Juan Camilo Córdoba Deportivo Pereira Active 86 / 96 40% 1 08.11.2027 -
Josh Nichols Oldham Athletic Active 118 / 121 40% 1 08.11.2027 -
Yury Oyarzo Racing Active 92 / 93 40% 3 05.11.2027 -
Victor Hernandez Santa Fe Active 121 / 126 40% 4 05.11.2027 -
Óscar Hinojosa Metropolitanos Active 82 / 89 40% 5 03.11.2027 -
Ayden Heaven Portsmouth Active 146 / 146 40% 1 03.11.2027 Needs More Info
Gideon Manaseh Ikorodu City Active 93 / 105 40% 5 01.11.2027 -
Trey Nyoni Rotherham United Active 138 / 157 40% 1 01.11.2027 -
Ignacio Fernández Boston River Active 92 / 95 40% 2 31.10.2027 -
Halam Loboa Sevilla Active 122 / 115 40% 1 31.10.2027 -
Joel Ezra Enyimba Active 95 / 88 40% 3 28.10.2027 -
Honest Ahanor Atalanta Active 136 / 149 40% 1 28.10.2027 -
Mirza Ćatović VfB Stuttgart Active 119 / 122 40% 1 27.10.2027 -
Matias Siltanen Malmo FF Active 123 / 119 40% 2 24.10.2027 -
Jan Cedilnik Chikhura Active 85 / 75 40% 2 21.10.2027 -
Diego Vargas Universidad de Concepcion Active 92 / 91 40% 1 21.10.2027 -
Francisco Machis Llaneros Active 84 / 98 40% 2 19.10.2027 -
Juan Diego Perdomo Depor Active 87 / 98 40% 2 18.10.2027 -
Tiago Gordillo San Miguel Active 85 / 86 40% 1 17.10.2027 -
Facundo Balatti Penarol Active 103 / 104 40% 4 16.10.2027 -
Ivan Borges Defensores Active 85 / 82 40% 3 16.10.2027 -
Onyeuche Ujunwa Ikorodu City Active 88 / 81 40% 1 16.10.2027 -
Samuel Martín Millonarios Active 108 / 121 40% 1 15.10.2027 -
Mohamed Moussa Koïta Mathare United Active 93 / 112 40% 1 24.09.2027 -
Alejandro Leiva Patronato Active 94 / 111 40% 1 23.09.2027 -
Juan David Sánchez Caracas Active 99 / 113 40% 1 21.09.2027 -
Ángel Aguayo Sol de America Active 91 / 92 40% 2 15.09.2027 -
Colin Guske Orlando City Active 92 / 98 40% 1 12.09.2027 -
Juan Pablo Arregue Jaguares Active 86 / 91 40% 1 10.09.2027 -
Nazareno Roselli Defensa y Justicia Active 112 / 125 40% 1 09.09.2027 -
Eliás Montiel Borussia Dortmund Active 134 / 131 40% 1 08.09.2027 -
Mohamed Bolivar Barranquilla Active 90 / 89 40% 1 08.09.2027 -
Matías Canedo Rampla Juniors Active 85 / 91 40% 1 06.09.2027 -
Filippo Distefano Empoli Active 121 / 122 40% 1 12.07.2027 -
Stefano Di Mario Virtus Entella Active 120 / 138 40% 1 12.07.2027 -
Mateo Díaz Chaves Argentinos Juniors Active 110 / 113 42% 1 / 1m 21.04.2027 -
Matías Noble Almirante Brown Active 115 / 115 52% 1 / 1m 21.04.2027 -
José Bernal Ethnikos Achnas Active 99 / 94 40% 1 08.12.2026 -
Job Ochieng Real Sociedad Active 103 / 105 40% 1 08.12.2026 -
Juan Bisanz Huracán Active 124 / 137 40% 4 30.11.2026 -
Edu Expósito Espanyol Active 145 / 148 40% 5 29.11.2026 -
Luis Chávez Dinamo Moscow Active 131 / 135 40% 1 29.11.2026 -
Manu Morlanes Mallorca Active 130 / 131 40% 5 27.11.2026 -
Majid Jahanbakhsh Rah Ahan Active 135 / 115 40% 2 25.11.2026 -
Jens Petter Hauge Bodo/Glimt Active 143 / 138 40% 1 25.11.2026 -
Luke McNally Bristol City Active 131 / 115 40% 2 23.11.2026 -
Reda Khadra Qarabag Active 125 / 137 40% 1 17.11.2026 -
Aidan Morris Middlesbrough Active 131 / 133 40% 1 16.11.2026 -
Wendel Zenit Active 147 / 146 40% 1 16.11.2026 -
Bradley Zwane SuperSport United Active 113 / 101 40% 1 16.11.2026 -
Juan Pablo Gallego Fehervar Active 109 / 120 40% 1 16.11.2026 -
Rasmus Kristensen FC Midtjylland Active 146 / 149 40% 1 13.11.2026 -
Azor Matusiwa Ipswich Town Active 130 / 142 40% 1 13.11.2026 -
Oswin Appollis Orlando Pirates Active 124 / 115 40% 1 12.11.2026 -
Franco Zapiola Platense Active 128 / 125 40% 1 12.11.2026 -
James Justin Leeds United Active 140 / 148 40% 1 10.11.2026 -
Anel Ahmedhodžić Burnley Active 133 / 137 40% 1 10.11.2026 -
Marcelo Allende Mamelodi Sundowns Active 125 / 122 40% 4 07.11.2026 -
Steven Bergwijn Al-Ittihad Active 150 / 150 40% 1 06.11.2026 -
Ronnie Edwards Queens Park Rangers Active 124 / 120 40% 1 05.11.2026 -
Dara O'Shea Ipswich Town Active 138 / 136 40% 1 05.11.2026 -
Ferland Mendy Real Madrid Active 146 / 146 40% 4 04.11.2026 -
Kevin Zenón Boca Juniors Active 128 / 124 40% 1 04.11.2026 -
Marcelino Moreno Lanús Active 134 / 124 40% 1 04.11.2026 -
Alexey Miranchuk Atlanta United FC Active 143 / 132 40% 1 01.11.2026 -
Pedrinho Shakhtar Active 139 / 121 40% 1 31.10.2026 -
Malcom Al Jazira Active 151 / 149 40% 1 31.10.2026 -
Kenny Tete Fulham Active 144 / 140 40% 1 30.10.2026 -
Galeno Al-Ahli Active 150 / 143 40% 1 29.10.2026 -
Max Bird Birmingham Active 131 / 142 40% 2 27.10.2026 -
Yoane Wissa Newcastle United Active 147 / 135 40% 1 22.10.2026 -
Agustín Paz Progreso Active 111 / 121 40% 2 21.10.2026 -
Brooke Norton-Cuffy Hull City Active 138 / 134 40% 1 21.10.2026 -
Zian Flemming Ipswich Town Active 130 / 144 40% 1 21.10.2026 -
Toti Wolverhampton Active 134 / 138 40% 1 19.10.2026 -
Joachim Andersen Fulham Active 149 / 150 40% 2 17.10.2026 -
Florentino Luís Ipswich Town Active 145 / 148 40% 1 16.10.2026 -
Hidemasa Morita Hull City Active 148 / 130 40% 1 16.10.2026 -
Khuliso Mudau Mamelodi Sundowns Active 134 / 128 40% 1 15.10.2026 -
Tariq Lamptey Queens Park Rangers Active 133 / 124 40% 1 13.10.2026 -
Ayrton Costa Boca Juniors Active 132 / 138 40% 1 12.10.2026 -
Japhet Tanganga Sheffield United Active 128 / 119 40% 1 11.10.2026 -
Ander Guevara Racing Genk Active 140 / 151 40% 3 09.10.2026 -
Sergi Cardona KAA Gent Active 141 / 137 40% 3 09.10.2026 -
Santiago Toloza O'Higgins Active 123 / 123 40% 1 09.10.2026 -
Alan Lescano Argentinos Juniors Active 127 / 130 40% 1 09.10.2026 -
Cheikh Sabaly Vancouver Whitecaps Active 128 / 126 40% 1 09.10.2026 -
Rubén Duarte Pumas UNAM Active 130 / 128 40% 3 08.10.2026 -
Kevin Castañeda Guadalajara Active 117 / 127 40% 1 07.10.2026 -
Justo Giani Umraniyespor Active 126 / 134 40% 1 07.10.2026 -
Willer Ditta Cruz Azul Active 139 / 132 40% 1 06.10.2026 -
Jesús Orozco Chiquete Cruz Azul Active 131 / 127 40% 1 06.10.2026 -
Nico Elvedi Leeds United Active 139 / 119 40% 1 10.09.2026 -
Ezequiel Cañete Huachipato Active 114 / 117 40% 1 07.09.2026 -
Emiliano Álvarez Progreso Active 117 / 111 40% 1 07.09.2026 -
Carlos Álvarez Club America Active 132 / 129 40% 1 05.09.2026 -
Richard Ledezma Guadalajara Active 136 / 140 40% 3 04.09.2026 -
Carlos Rodríguez Cruz Azul Active 136 / 137 40% 4 03.09.2026 -
Bryan González Guadalajara Active 125 / 140 40% 2 03.09.2026 -
Agustín Palavecino Cruz Azul Active 137 / 135 40% 1 03.09.2026 -
Brian Gutiérrez Guadalajara Active 128 / 128 40% 2 01.09.2026 -
Camilo Martinez Cortulua Active 117 / 130 40% 1 01.09.2026 -
Samuel Velásquez Atletico Nacional Active 117 / 129 40% 2 30.08.2026 -
Bastián Yáñez O'Higgins Active 110 / 106 40% 1 30.08.2026 -
Yeferson Rodallega Envigado Active 115 / 110 40% 1 30.08.2026 -
Leroy Sané Galatasaray Active 149 / 145 40% 1 29.08.2026 -
Fidel Ambríz Monterrey Active 127 / 122 40% 1 28.08.2026 -
Juan Sierra La Equidad Active 125 / 121 40% 1 28.08.2026 -
Nicolás Castro Toluca Active 124 / 117 40% 2 27.08.2026 -
Carlos Jimenez Veracruz Active 117 / 128 40% 1 24.08.2026 -
César Araújo Tigres Active 121 / 135 40% 1 24.08.2026 -
Sebastián Córdova Pumas UNAM Active 128 / 129 40% 2 23.08.2026 -
Alejandro Zendejas Club America Active 137 / 136 40% 1 23.08.2026 -
Alejandro Piedrahita Deportivo Pereira Active 125 / 128 40% 1 22.08.2026 -
Juan Camilo Pérez Carabobo Active 116 / 112 40% 1 20.08.2026 -
Christian Larotonda Caracas Active 110 / 108 40% 1 20.08.2026 -
Alexis González Los Andes Active 80 / 85 30% 1 / 1m 19.08.2026 -
Diego Rossi Monterrey Active 131 / 127 40% 1 17.08.2026 -
Erik Lira Cruz Azul Active 135 / 131 40% 1 14.08.2026 -
Alan Varela Porto Active 147 / 156 40% 1 13.08.2026 -
Givairo Read Feyenoord Active 134 / 130 40% 1 13.08.2026 -
Lucas Torreira Galatasaray Active 155 / 149 40% 1 11.08.2026 -
Fernando Gorriarán Tigres Active 137 / 136 40% 2 10.08.2026 -
Ritsu Doan Gamba Osaka Active 151 / 158 40% 1 10.08.2026 -
Alexis Vega Feyenoord Active 143 / 145 40% 1 09.08.2026 -
Fredrik Aursnes Benfica Active 148 / 154 40% 1 07.08.2026 -
Davinson Sánchez Galatasaray Active 148 / 140 40% 1 06.08.2026 -
Miles Robinson FC Cincinnati Active 134 / 136 40% 1 06.08.2026 -